createdAt,value
2023-01-19T00:02:47.416Z,98869.16
2023-01-19T00:05:50.089Z,98868.38
2023-01-19T00:08:52.556Z,98873.78
2023-01-19T00:11:55.153Z,98871.34
2023-01-19T00:14:57.602Z,98867.13
2023-01-19T00:18:00.243Z,98868.22
2023-01-19T00:21:02.581Z,98863.13
2023-01-19T00:24:05.517Z,98866.75
2023-01-19T00:27:07.840Z,98873.37
2023-01-19T00:30:10.896Z,98867.31
2023-01-19T00:33:16.210Z,98864.13
2023-01-19T00:36:19.300Z,98859.72
2023-01-19T00:39:21.600Z,98868.31
2023-01-19T00:42:44.546Z,98866.63
2023-01-19T00:45:46.887Z,98867.63
2023-01-19T00:48:49.581Z,98870.59
2023-01-19T00:51:51.919Z,98876.44
2023-01-19T00:54:54.585Z,98867.88
2023-01-19T00:57:57.318Z,98862.75
2023-01-19T01:01:03.731Z,98862.09
2023-01-19T01:04:06.520Z,98863.03
2023-01-19T01:07:09.337Z,98854.91
2023-01-19T01:10:13.481Z,98851.56
2023-01-19T01:13:23.704Z,98854.09
2023-01-19T01:16:28.518Z,98853.34
2023-01-19T01:19:31.202Z,98853.44
2023-01-19T01:22:33.539Z,98840.66
2023-01-19T01:25:37.884Z,98840.03
2023-01-19T01:28:40.258Z,98852.03
2023-01-19T01:31:43.026Z,98854.66
2023-01-19T01:34:45.409Z,98859.75
2023-01-19T01:37:48.094Z,98859.81
2023-01-19T01:40:50.560Z,98849.53
2023-01-19T01:43:56.591Z,98843.59
2023-01-19T01:46:59.294Z,98843.69
2023-01-19T01:50:09.170Z,98848.91
2023-01-19T01:53:13.787Z,98854.12
2023-01-19T01:56:20.659Z,98861.06
2023-01-19T01:59:29.428Z,98856.84
2023-01-19T02:02:51.775Z,98862.19
2023-01-19T02:05:57.599Z,98874.13
2023-01-19T02:09:24.693Z,98879.28
2023-01-19T02:12:47.267Z,98901.59
2023-01-19T02:15:54.112Z,98884.53
2023-01-19T02:18:57.270Z,98878.72
2023-01-19T02:22:26.012Z,98853.13
2023-01-19T02:25:28.656Z,98831.72
2023-01-19T02:28:31.440Z,98841.91
2023-01-19T02:31:35.818Z,98851.34
2023-01-19T02:34:38.175Z,98882.28
2023-01-19T02:37:42.353Z,98898.47
2023-01-19T02:40:45.501Z,98893.41
2023-01-19T02:43:49.164Z,98871.19
2023-01-19T02:46:53.401Z,98862.72
2023-01-19T02:49:57.245Z,98856.84
2023-01-19T02:53:03.595Z,98841.50
2023-01-19T02:56:06.370Z,98832.94
2023-01-19T02:59:08.924Z,98827.87
2023-01-19T03:02:16.527Z,98845.91
2023-01-19T03:05:37.846Z,98863.13
2023-01-19T03:08:55.899Z,98866.41
2023-01-19T03:12:05.338Z,98870.81
2023-01-19T03:15:14.293Z,98866.56
2023-01-19T03:18:21.161Z,98865.72
2023-01-19T03:21:26.309Z,98879.63
2023-01-19T03:24:30.851Z,98892.41
2023-01-19T03:27:40.719Z,98905.16
2023-01-19T03:30:46.617Z,98908.69
2023-01-19T03:33:51.617Z,98889.81
2023-01-19T03:36:55.595Z,98863.34
2023-01-19T03:39:58.283Z,98848.13
2023-01-19T03:43:01.707Z,98830.88
2023-01-19T03:46:05.981Z,98819.03
2023-01-19T03:49:09.286Z,98808.94
2023-01-19T03:52:12.953Z,98819.34
2023-01-19T03:55:15.347Z,98822.06
2023-01-19T03:58:18.013Z,98843.34
2023-01-19T04:01:23.335Z,98841.69
2023-01-19T04:04:26.261Z,98852.88
2023-01-19T04:07:28.555Z,98867.47
2023-01-19T04:10:31.947Z,98888.19
2023-01-19T04:13:34.752Z,98866.94
2023-01-19T04:16:37.376Z,98850.81
2023-01-19T04:19:39.734Z,98878.13
2023-01-19T04:22:42.608Z,98871.41
2023-01-19T04:25:44.989Z,98876.78
2023-01-19T04:28:47.692Z,98880.97
2023-01-19T04:31:50.054Z,98871.47
2023-01-19T04:34:52.710Z,98868.13
2023-01-19T04:37:55.154Z,98866.28
2023-01-19T04:40:57.806Z,98869.72
2023-01-19T04:44:00.541Z,98861.38
2023-01-19T04:47:03.492Z,98849.56
2023-01-19T04:50:07.007Z,98844.47
2023-01-19T04:53:09.643Z,98848.09
2023-01-19T04:56:12.443Z,98841.19
2023-01-19T04:59:15.499Z,98843.88
2023-01-19T05:02:17.808Z,98855.13
2023-01-19T05:05:20.685Z,98866.19
2023-01-19T05:08:23.105Z,98878.09
2023-01-19T05:11:26.142Z,98897.72
2023-01-19T05:14:28.717Z,98897.72
2023-01-19T05:17:31.427Z,98881.47
2023-01-19T05:20:33.892Z,98881.16
2023-01-19T05:23:36.525Z,98891.28
2023-01-19T05:26:39.113Z,98906.69
2023-01-19T05:29:41.904Z,98915.12
2023-01-19T05:32:44.313Z,98920.16
2023-01-19T05:35:47.150Z,98921.00
2023-01-19T05:38:49.978Z,98916.41
2023-01-19T05:41:52.734Z,98916.31
2023-01-19T05:44:55.203Z,98917.97
2023-01-19T05:47:57.773Z,98918.16
2023-01-19T05:51:00.297Z,98900.84
2023-01-19T05:54:02.904Z,98897.47
2023-01-19T05:57:05.197Z,98895.78
2023-01-19T06:00:08.308Z,98899.94
2023-01-19T06:03:11.944Z,98882.94
2023-01-19T06:06:15.432Z,98857.19
2023-01-19T06:09:18.849Z,98869.31
2023-01-19T06:12:21.470Z,98871.88
2023-01-19T06:15:23.799Z,98879.56
2023-01-19T06:18:26.612Z,98864.16
2023-01-19T06:21:29.522Z,98860.78
2023-01-19T06:24:32.956Z,98877.09
2023-01-19T06:27:35.256Z,98876.41
2023-01-19T06:30:37.929Z,98863.53
2023-01-19T06:33:40.378Z,98850.78
2023-01-19T06:36:43.012Z,98855.00
2023-01-19T06:39:45.543Z,98861.72
2023-01-19T06:42:48.472Z,98881.28
2023-01-19T06:45:51.209Z,98900.03
2023-01-19T06:48:54.772Z,98894.19
2023-01-19T06:51:57.526Z,98911.84
2023-01-19T06:55:00.101Z,98899.72
2023-01-19T06:58:05.243Z,98904.75
2023-01-19T07:01:07.850Z,98892.59
2023-01-19T07:04:14.037Z,98905.44
2023-01-19T07:07:16.843Z,98887.31
2023-01-19T07:10:19.300Z,98894.91
2023-01-19T07:13:22.008Z,98884.59
2023-01-19T07:16:25.046Z,98882.84
2023-01-19T07:19:27.927Z,98875.06
2023-01-19T07:22:30.222Z,98872.34
2023-01-19T07:25:32.876Z,98886.69
2023-01-19T07:28:36.968Z,98912.13
2023-01-19T07:31:39.732Z,98913.78
2023-01-19T07:34:42.279Z,98917.84
2023-01-19T07:37:44.942Z,98909.84
2023-01-19T07:40:47.329Z,98915.75
2023-01-19T07:43:51.373Z,98907.06
2023-01-19T07:46:53.684Z,98910.75
2023-01-19T07:49:56.822Z,98914.13
2023-01-19T07:53:04.738Z,98911.25
2023-01-19T07:56:10.354Z,98918.84
2023-01-19T07:59:12.718Z,98928.41
2023-01-19T08:02:17.143Z,98933.47
2023-01-19T08:05:20.674Z,98929.91
2023-01-19T08:08:22.967Z,98931.66
2023-01-19T08:11:25.520Z,98923.09
2023-01-19T08:14:27.937Z,98933.31
2023-01-19T08:17:30.540Z,98920.47
2023-01-19T08:20:33.046Z,98913.59
2023-01-19T08:23:35.653Z,98910.00
2023-01-19T08:26:38.964Z,98915.84
2023-01-19T08:29:41.595Z,98914.47
2023-01-19T08:32:43.988Z,98909.81
2023-01-19T08:35:50.667Z,98906.38
2023-01-19T08:38:52.960Z,98909.03
2023-01-19T08:41:55.763Z,98919.31
2023-01-19T08:44:58.709Z,98920.97
2023-01-19T08:48:01.452Z,98936.41
2023-01-19T08:51:03.932Z,98925.44
2023-01-19T08:54:06.671Z,98929.50
2023-01-19T08:57:09.121Z,98927.03
2023-01-19T09:00:12.136Z,98936.25
2023-01-19T09:03:14.754Z,98925.19
2023-01-19T09:06:18.483Z,98917.91
2023-01-19T09:09:20.788Z,98928.28
2023-01-19T09:12:23.575Z,98914.75
2023-01-19T09:15:26.371Z,98917.19
2023-01-19T09:18:29.017Z,98918.28
2023-01-19T09:21:31.682Z,98918.25
2023-01-19T09:24:35.076Z,98927.47
2023-01-19T09:27:37.359Z,98937.78
2023-01-19T09:30:41.492Z,98932.59
2023-01-19T09:33:43.993Z,98923.97
2023-01-19T09:36:46.821Z,98919.63
2023-01-19T09:39:49.156Z,98924.75
2023-01-19T09:42:56.283Z,98919.47
2023-01-19T09:45:59.526Z,98932.31
2023-01-19T09:49:05.148Z,98926.97
2023-01-19T09:52:12.498Z,98915.09
2023-01-19T09:55:20.461Z,98919.41
2023-01-19T09:58:23.796Z,98916.03
2023-01-19T10:01:26.480Z,98925.69
2023-01-19T10:04:29.412Z,98922.62
2023-01-19T10:07:31.803Z,98925.25
2023-01-19T10:10:35.769Z,98928.19
2023-01-19T10:13:48.709Z,98931.19
2023-01-19T10:16:56.238Z,98933.87
2023-01-19T10:20:01.944Z,98935.59
2023-01-19T10:23:10.612Z,98941.81
2023-01-19T10:26:17.208Z,98947.09
2023-01-19T10:29:26.134Z,98950.72
2023-01-19T10:32:33.863Z,98946.50
2023-01-19T10:35:36.553Z,98932.19
2023-01-19T10:38:39.003Z,98944.19
2023-01-19T10:41:43.225Z,98943.44
2023-01-19T10:44:45.912Z,98953.59
2023-01-19T10:47:48.996Z,98951.97
2023-01-19T10:51:02.294Z,98954.72
2023-01-19T10:54:05.326Z,98963.22
2023-01-19T10:57:09.695Z,98954.59
2023-01-19T11:00:31.319Z,98962.50
2023-01-19T11:03:33.633Z,98960.75
2023-01-19T11:06:36.505Z,98960.06
2023-01-19T11:09:38.885Z,98955.75
2023-01-19T11:12:42.780Z,98963.53
2023-01-19T11:15:57.523Z,98967.69
2023-01-19T11:19:02.078Z,98960.84
2023-01-19T11:22:22.854Z,98960.91
2023-01-19T11:25:29.383Z,98965.97
2023-01-19T11:28:33.269Z,98968.66
2023-01-19T11:31:36.410Z,98950.94
2023-01-19T11:34:39.237Z,98954.66
2023-01-19T11:37:43.215Z,98955.34
2023-01-19T11:40:56.202Z,98961.22
2023-01-19T11:44:02.871Z,98975.91
2023-01-19T11:47:06.684Z,98974.13
2023-01-19T11:50:13.720Z,98984.31
2023-01-19T11:53:24.955Z,98974.13
2023-01-19T11:56:29.297Z,98971.59
2023-01-19T11:59:31.745Z,98978.94
2023-01-19T12:02:43.314Z,98987.63
2023-01-19T12:05:48.365Z,98991.72
2023-01-19T12:08:55.994Z,98999.25
2023-01-19T12:12:04.122Z,98998.12
2023-01-19T12:15:19.941Z,99003.37
2023-01-19T12:18:24.690Z,99006.16
2023-01-19T12:21:27.070Z,99010.72
2023-01-19T12:24:35.041Z,99008.84
2023-01-19T12:27:37.535Z,99017.94
2023-01-19T12:30:40.388Z,99016.91
2023-01-19T12:33:43.272Z,99015.19
2023-01-19T12:36:46.094Z,99024.63
2023-01-19T12:39:48.937Z,99023.56
2023-01-19T12:43:03.256Z,99034.91
2023-01-19T12:46:18.664Z,99030.88
2023-01-19T12:49:24.378Z,99033.37
2023-01-19T12:52:30.893Z,99045.44
2023-01-19T12:55:37.872Z,99055.63
2023-01-19T12:58:47.047Z,99047.87
2023-01-19T13:02:28.247Z,99057.47
2023-01-19T13:05:48.125Z,99054.97
2023-01-19T13:08:58.577Z,99060.81
2023-01-19T13:12:30.328Z,99073.56
2023-01-19T13:15:36.348Z,99081.13
2023-01-19T13:18:40.971Z,99088.31
2023-01-19T13:21:45.211Z,99106.22
2023-01-19T13:25:07.704Z,99102.69
2023-01-19T13:28:11.942Z,99112.19
2023-01-19T13:31:15.050Z,99114.56
2023-01-19T13:34:23.130Z,99117.31
2023-01-19T13:37:36.988Z,99125.09
2023-01-19T13:40:40.097Z,99133.91
2023-01-19T13:43:43.047Z,99130.59
2023-01-19T13:46:46.813Z,99137.38
2023-01-19T13:49:51.148Z,99142.75
2023-01-19T13:52:56.741Z,99149.50
2023-01-19T13:56:25.698Z,99162.16
2023-01-19T13:59:28.301Z,99166.56
2023-01-19T14:02:31.003Z,99170.03
2023-01-19T14:05:41.670Z,99179.63
2023-01-19T14:08:44.044Z,99182.38
2023-01-19T14:11:48.519Z,99182.72
2023-01-19T14:14:50.914Z,99183.56
2023-01-19T14:18:12.169Z,99176.03
2023-01-19T14:21:15.028Z,99176.03
2023-01-19T14:24:21.383Z,99171.03
2023-01-19T14:27:24.426Z,99153.22
2023-01-19T14:30:27.905Z,99159.16
2023-01-19T14:33:40.271Z,99167.66
2023-01-19T14:36:42.917Z,99177.31
2023-01-19T14:39:47.168Z,99197.09
2023-01-19T14:42:54.909Z,99188.69
2023-01-19T14:45:57.901Z,99196.38
2023-01-19T14:49:02.844Z,99191.34
2023-01-19T14:52:07.511Z,99211.88
2023-01-19T14:55:19.339Z,99211.88
2023-01-19T14:58:23.891Z,99208.47
2023-01-19T15:01:31.033Z,99205.12
2023-01-19T15:04:33.576Z,99227.66
2023-01-19T15:07:37.350Z,99242.25
2023-01-19T15:10:39.877Z,99255.94
2023-01-19T15:13:44.197Z,99274.72
2023-01-19T15:16:46.960Z,99288.31
2023-01-19T15:19:49.656Z,99284.87
2023-01-19T15:22:51.991Z,99283.06
2023-01-19T15:25:59.208Z,99278.75
2023-01-19T15:29:01.618Z,99278.81
2023-01-19T15:32:04.228Z,99271.91
2023-01-19T15:35:12.780Z,99277.03
2023-01-19T15:38:15.538Z,99289.88
2023-01-19T15:41:25.826Z,99298.38
2023-01-19T15:44:29.191Z,99307.03
2023-01-19T15:47:31.490Z,99302.75
2023-01-19T15:50:36.225Z,99299.28
2023-01-19T15:53:39.845Z,99284.87
2023-01-19T15:56:42.768Z,99291.78
2023-01-19T15:59:45.704Z,99316.59
2023-01-19T16:02:50.242Z,99322.56
2023-01-19T16:05:52.935Z,99317.44
2023-01-19T16:08:59.800Z,99336.25
2023-01-19T16:12:02.474Z,99356.66
2023-01-19T16:15:05.036Z,99354.06
2023-01-19T16:18:07.923Z,99344.72
2023-01-19T16:21:10.501Z,99355.84
2023-01-19T16:24:13.409Z,99384.97
2023-01-19T16:27:15.757Z,99375.47
2023-01-19T16:30:19.443Z,99378.03
2023-01-19T16:33:22.119Z,99383.97
2023-01-19T16:36:26.491Z,99395.16
2023-01-19T16:39:28.841Z,99400.16
2023-01-19T16:42:31.620Z,99399.37
2023-01-19T16:45:34.197Z,99407.16
2023-01-19T16:48:36.812Z,99426.81
2023-01-19T16:51:39.663Z,99455.09
2023-01-19T16:54:43.066Z,99454.28
2023-01-19T16:57:45.451Z,99458.50
2023-01-19T17:00:48.389Z,99459.37
2023-01-19T17:03:50.755Z,99456.00
2023-01-19T17:06:53.942Z,99456.00
2023-01-19T17:09:56.392Z,99462.75
2023-01-19T17:12:59.931Z,99467.97
2023-01-19T17:16:03.548Z,99472.25
2023-01-19T17:19:07.512Z,99475.72
2023-01-19T17:22:11.865Z,99486.91
2023-01-19T17:25:14.547Z,99490.28
2023-01-19T17:28:16.986Z,99499.69
2023-01-19T17:31:20.880Z,99510.84
2023-01-19T17:34:23.387Z,99502.31
2023-01-19T17:37:26.059Z,99521.06
2023-01-19T17:40:29.780Z,99519.34
2023-01-19T17:43:32.625Z,99516.72
2023-01-19T17:46:36.612Z,99521.91
2023-01-19T17:49:39.740Z,99510.75
2023-01-19T17:52:42.216Z,99520.13
2023-01-19T17:55:45.004Z,99518.47
2023-01-19T17:58:48.217Z,99521.06
2023-01-19T18:01:51.076Z,99525.31
2023-01-19T18:04:54.072Z,99526.13
2023-01-19T18:07:56.435Z,99527.03
2023-01-19T18:11:00.652Z,99529.56
2023-01-19T18:14:03.472Z,99536.44
2023-01-19T18:17:06.325Z,99539.16
2023-01-19T18:20:09.338Z,99536.50
2023-01-19T18:23:12.261Z,99545.06
2023-01-19T18:26:20.194Z,99546.06
2023-01-19T18:29:23.109Z,99546.06
2023-01-19T18:32:27.192Z,99540.91
2023-01-19T18:35:30.207Z,99537.50
2023-01-19T18:38:33.461Z,99544.28
2023-01-19T18:41:42.241Z,99558.84
2023-01-19T18:44:44.548Z,99559.75
2023-01-19T18:47:47.526Z,99560.63
2023-01-19T18:50:50.392Z,99559.87
2023-01-19T18:53:53.404Z,99560.72
2023-01-19T18:56:55.909Z,99550.53
2023-01-19T18:59:58.651Z,99560.91
2023-01-19T19:03:01.361Z,99554.88
2023-01-19T19:06:05.532Z,99572.00
2023-01-19T19:09:09.266Z,99570.31
2023-01-19T19:12:12.311Z,99575.41
2023-01-19T19:15:15.102Z,99577.09
2023-01-19T19:18:18.201Z,99581.37
2023-01-19T19:21:21.537Z,99590.81
2023-01-19T19:24:24.520Z,99589.13
2023-01-19T19:27:27.374Z,99596.81
2023-01-19T19:30:30.840Z,99605.34
2023-01-19T19:33:37.073Z,99608.72
2023-01-19T19:36:40.383Z,99613.13
2023-01-19T19:39:42.866Z,99626.91
2023-01-19T19:42:45.735Z,99623.53
2023-01-19T19:46:01.476Z,99636.34
2023-01-19T19:49:04.581Z,99639.78
2023-01-19T19:52:07.348Z,99644.00
2023-01-19T19:55:10.879Z,99653.41
2023-01-19T19:58:13.919Z,99655.97
2023-01-19T20:01:20.998Z,99644.09
2023-01-19T20:04:25.363Z,99652.63
2023-01-19T20:07:28.223Z,99662.91
2023-01-19T20:10:32.868Z,99661.19
2023-01-19T20:13:36.900Z,99675.75
2023-01-19T20:16:40.048Z,99668.03
2023-01-19T20:19:43.740Z,99656.97
2023-01-19T20:22:46.741Z,99669.78
2023-01-19T20:25:49.422Z,99661.22
2023-01-19T20:28:53.385Z,99657.87
2023-01-19T20:31:56.654Z,99660.44
2023-01-19T20:34:59.779Z,99656.28
2023-01-19T20:38:02.308Z,99660.53
2023-01-19T20:41:05.413Z,99669.97
2023-01-19T20:44:07.995Z,99671.63
2023-01-19T20:47:10.919Z,99667.41
2023-01-19T20:50:13.335Z,99669.06
2023-01-19T20:53:16.267Z,99677.66
2023-01-19T20:56:18.883Z,99679.31
2023-01-19T20:59:22.276Z,99679.31
2023-01-19T21:02:27.824Z,99668.22
2023-01-19T21:05:31.432Z,99663.09
2023-01-19T21:08:34.411Z,99663.09
2023-01-19T21:11:38.830Z,99670.84
2023-01-19T21:14:42.418Z,99675.09
2023-01-19T21:17:45.273Z,99669.12
2023-01-19T21:20:48.861Z,99669.16
2023-01-19T21:23:51.715Z,99670.88
2023-01-19T21:26:54.479Z,99671.72
2023-01-19T21:29:58.653Z,99666.56
2023-01-19T21:33:02.294Z,99675.97
2023-01-19T21:36:04.988Z,99672.56
2023-01-19T21:39:08.211Z,99680.28
2023-01-19T21:42:10.914Z,99675.97
2023-01-19T21:45:13.396Z,99687.06
2023-01-19T21:48:16.873Z,99699.03
2023-01-19T21:51:19.308Z,99726.34
2023-01-19T21:54:21.984Z,99742.53
2023-01-19T21:57:24.309Z,99777.59
2023-01-19T22:00:29.468Z,99798.09
2023-01-19T22:03:32.290Z,99798.06
2023-01-19T22:06:34.682Z,99777.50
2023-01-19T22:09:37.314Z,99771.47
2023-01-19T22:12:40.431Z,99747.50
2023-01-19T22:15:43.043Z,99727.91
2023-01-19T22:18:49.066Z,99723.66
2023-01-19T22:21:51.765Z,99732.28
2023-01-19T22:24:54.150Z,99743.47
2023-01-19T22:27:58.666Z,99757.13
2023-01-19T22:31:05.289Z,99746.88
2023-01-19T22:34:10.281Z,99739.22
2023-01-19T22:37:12.681Z,99741.75
2023-01-19T22:40:15.542Z,99752.84
2023-01-19T22:43:17.955Z,99757.06
2023-01-19T22:46:22.099Z,99745.16
2023-01-19T22:49:24.499Z,99734.13
2023-01-19T22:52:27.397Z,99725.66
2023-01-19T22:55:29.896Z,99731.56
2023-01-19T22:58:32.601Z,99743.50
2023-01-19T23:01:40.247Z,99737.47
2023-01-19T23:04:43.330Z,99729.84
2023-01-19T23:07:45.880Z,99731.53
2023-01-19T23:10:48.517Z,99729.84
2023-01-19T23:13:51.056Z,99715.28
2023-01-19T23:16:53.747Z,99704.22
2023-01-19T23:19:56.118Z,99703.37
2023-01-19T23:22:58.845Z,99691.41
2023-01-19T23:26:05.398Z,99690.59
2023-01-19T23:29:11.114Z,99701.72
2023-01-19T23:32:13.853Z,99700.81
2023-01-19T23:35:16.574Z,99705.88
2023-01-19T23:38:20.120Z,99716.16
2023-01-19T23:41:25.073Z,99712.78
2023-01-19T23:44:27.547Z,99718.75
2023-01-19T23:47:30.238Z,99732.50
2023-01-19T23:50:32.637Z,99722.28
2023-01-19T23:53:36.083Z,99722.34
2023-01-19T23:56:38.907Z,99727.47
2023-01-19T23:59:41.544Z,99740.25
